createdAt,value
2018-12-01T00:02:42.944Z,0.60
2018-12-01T00:05:46.266Z,0.60
2018-12-01T00:08:49.311Z,0.70
2018-12-01T00:11:52.347Z,0.60
2018-12-01T00:14:55.406Z,0.60
2018-12-01T00:17:58.659Z,0.60
2018-12-01T00:21:01.695Z,0.60
2018-12-01T00:24:05.207Z,0.70
2018-12-01T00:27:08.291Z,0.70
2018-12-01T00:30:16.100Z,0.70
2018-12-01T00:33:19.224Z,0.60
2018-12-01T00:36:22.263Z,0.60
2018-12-01T00:39:25.391Z,0.60
2018-12-01T00:42:28.462Z,0.60
2018-12-01T00:45:31.695Z,0.70
2018-12-01T00:48:34.751Z,0.70
2018-12-01T00:51:37.875Z,0.80
2018-12-01T00:54:40.939Z,0.80
2018-12-01T00:57:44.291Z,0.80
2018-12-01T01:00:47.360Z,0.80
2018-12-01T01:03:50.527Z,0.80
2018-12-01T01:06:53.647Z,0.70
2018-12-01T01:09:56.687Z,0.70
2018-12-01T01:12:59.699Z,0.70
2018-12-01T01:16:03.138Z,0.70
2018-12-01T01:19:06.135Z,0.70
2018-12-01T01:22:09.464Z,0.80
2018-12-01T01:25:13.011Z,0.80
2018-12-01T01:28:16.146Z,0.70
2018-12-01T01:31:19.223Z,0.70
2018-12-01T01:34:22.477Z,0.80
2018-12-01T01:37:25.511Z,0.70
2018-12-01T01:40:28.603Z,0.70
2018-12-01T01:43:31.729Z,0.70
2018-12-01T01:46:34.787Z,0.80
2018-12-01T01:49:38.144Z,0.80
2018-12-01T01:52:41.264Z,0.80
2018-12-01T01:55:44.574Z,0.80
2018-12-01T01:58:47.674Z,0.80
2018-12-01T02:01:50.798Z,0.80
2018-12-01T02:04:53.859Z,0.80
2018-12-01T02:07:56.951Z,0.80
2018-12-01T02:11:00.079Z,0.90
2018-12-01T02:14:03.439Z,0.90
2018-12-01T02:17:06.567Z,0.80
2018-12-01T02:20:13.724Z,0.80
2018-12-01T02:23:16.832Z,0.80
2018-12-01T02:26:19.894Z,0.90
2018-12-01T02:29:23.032Z,0.90
2018-12-01T02:32:26.106Z,0.80
2018-12-01T02:35:29.600Z,0.80
2018-12-01T02:38:32.926Z,0.90
2018-12-01T02:41:36.088Z,0.90
2018-12-01T02:45:04.612Z,0.90
2018-12-01T02:48:07.686Z,0.90
2018-12-01T02:51:10.800Z,0.90
2018-12-01T02:54:13.854Z,0.90
2018-12-01T02:57:16.979Z,0.80
2018-12-01T03:00:20.100Z,0.90
2018-12-01T03:03:23.241Z,0.90
2018-12-01T03:06:26.344Z,0.80
2018-12-01T03:09:30.083Z,0.80
2018-12-01T03:12:33.133Z,0.80
2018-12-01T03:15:36.237Z,0.80
2018-12-01T03:18:39.487Z,0.80
2018-12-01T03:21:42.511Z,0.80
2018-12-01T03:24:46.597Z,0.80
2018-12-01T03:27:50.538Z,0.80
2018-12-01T03:30:53.666Z,0.80
2018-12-01T03:33:57.664Z,0.80
2018-12-01T03:37:00.774Z,0.80
2018-12-01T03:40:04.964Z,0.80
2018-12-01T03:43:08.050Z,0.80
2018-12-01T03:46:11.184Z,0.90
2018-12-01T03:49:14.340Z,0.80
2018-12-01T03:52:17.492Z,0.80
2018-12-01T03:55:27.989Z,0.70
2018-12-01T03:58:31.702Z,0.80
2018-12-01T04:01:34.807Z,0.80
2018-12-01T04:04:37.927Z,0.80
2018-12-01T04:07:40.983Z,0.90
2018-12-01T04:10:44.743Z,0.90
2018-12-01T04:22:19.622Z,0.70
2018-12-01T04:25:22.849Z,0.70
2018-12-01T04:28:26.023Z,0.70
2018-12-01T04:31:29.139Z,0.70
2018-12-01T04:34:32.299Z,0.70
2018-12-01T04:37:35.365Z,0.70
2018-12-01T04:40:38.487Z,0.80
2018-12-01T04:43:41.643Z,0.90
2018-12-01T04:46:44.804Z,0.90
2018-12-01T04:49:47.939Z,0.80
2018-12-01T04:52:51.168Z,0.70
2018-12-01T04:55:54.264Z,0.70
2018-12-01T04:58:57.480Z,0.80
2018-12-01T05:02:01.287Z,0.70
2018-12-01T05:05:05.702Z,0.70
2018-12-01T05:08:08.839Z,0.70
2018-12-01T05:11:11.959Z,0.70
2018-12-01T05:14:15.039Z,0.80
2018-12-01T05:17:18.151Z,0.80
2018-12-01T05:20:23.010Z,0.80
2018-12-01T05:23:26.072Z,0.70
2018-12-01T05:26:29.243Z,0.80
2018-12-01T05:29:32.395Z,0.80
2018-12-01T05:32:35.935Z,0.90
2018-12-01T05:35:39.058Z,0.90
2018-12-01T05:38:42.226Z,0.90
2018-12-01T05:41:45.378Z,1.00
2018-12-01T05:44:48.410Z,0.90
2018-12-01T05:47:52.039Z,0.90
2018-12-01T05:50:55.106Z,0.80
2018-12-01T05:53:58.228Z,0.80
2018-12-01T05:57:01.288Z,0.80
2018-12-01T06:00:07.455Z,1.00
2018-12-01T06:03:11.588Z,1.00
2018-12-01T06:06:14.663Z,0.90
2018-12-01T06:09:17.799Z,0.90
2018-12-01T06:12:20.850Z,0.90
2018-12-01T06:15:23.973Z,1.00
2018-12-01T06:18:27.034Z,1.00
2018-12-01T06:21:30.155Z,1.10
2018-12-01T06:24:33.203Z,1.10
2018-12-01T06:27:36.453Z,1.00
2018-12-01T06:30:39.603Z,1.00
2018-12-01T06:33:42.713Z,1.00
2018-12-01T06:36:45.931Z,1.00
2018-12-01T06:39:48.992Z,1.10
2018-12-01T06:42:52.122Z,1.10
2018-12-01T06:45:55.176Z,1.10
2018-12-01T06:48:58.299Z,1.20
2018-12-01T06:52:01.364Z,1.10
2018-12-01T06:55:04.690Z,1.10
2018-12-01T06:58:07.989Z,1.00
2018-12-01T07:01:11.051Z,1.00
2018-12-01T07:04:14.175Z,1.00
2018-12-01T07:07:17.223Z,1.10
2018-12-01T07:10:21.385Z,1.00
2018-12-01T07:13:24.443Z,1.10
2018-12-01T07:16:27.568Z,1.10
2018-12-01T07:19:30.757Z,1.10
2018-12-01T07:22:33.795Z,1.10
2018-12-01T07:25:36.983Z,1.20
2018-12-01T07:28:40.050Z,1.20
2018-12-01T07:31:43.211Z,1.10
2018-12-01T07:34:46.847Z,1.10
2018-12-01T07:37:50.079Z,1.20
2018-12-01T07:40:53.127Z,1.30
2018-12-01T07:43:56.159Z,1.30
2018-12-01T07:46:59.403Z,1.40
2018-12-01T07:50:02.758Z,1.40
2018-12-01T07:53:06.655Z,1.40
2018-12-01T07:56:09.832Z,1.50
2018-12-01T07:59:13.063Z,1.40
2018-12-01T08:02:16.121Z,1.50
2018-12-01T08:05:19.555Z,1.50
2018-12-01T08:08:22.611Z,1.50
2018-12-01T08:11:25.739Z,1.50
2018-12-01T08:14:28.797Z,1.60
2018-12-01T08:17:31.895Z,1.60
2018-12-01T08:20:35.031Z,1.60
2018-12-01T08:23:38.078Z,1.60
2018-12-01T08:26:41.597Z,1.60
2018-12-01T08:29:44.688Z,1.70
2018-12-01T08:32:47.815Z,1.70
2018-12-01T08:35:50.879Z,1.70
2018-12-01T08:38:53.963Z,1.80
2018-12-01T08:41:57.039Z,1.90
2018-12-01T08:45:00.130Z,1.80
2018-12-01T08:48:03.363Z,2.00
2018-12-01T08:51:06.424Z,2.00
2018-12-01T08:54:09.550Z,2.10
2018-12-01T08:57:12.606Z,2.20
2018-12-01T09:00:19.626Z,2.30
2018-12-01T09:03:23.299Z,2.10
2018-12-01T09:06:26.631Z,2.00
2018-12-01T09:09:29.687Z,2.10
2018-12-01T09:12:32.780Z,2.00
2018-12-01T09:15:36.961Z,2.10
2018-12-01T09:18:39.072Z,2.20
2018-12-01T09:21:42.179Z,2.10
2018-12-01T09:24:45.451Z,2.20
2018-12-01T09:27:48.551Z,2.30
2018-12-01T09:30:51.679Z,2.30
2018-12-01T09:33:55.359Z,2.20
2018-12-01T09:36:58.477Z,2.30
2018-12-01T09:40:01.535Z,2.50
2018-12-01T09:43:05.143Z,2.60
2018-12-01T09:46:08.235Z,2.90
2018-12-01T09:49:11.327Z,2.70
2018-12-01T09:52:14.422Z,2.80
2018-12-01T09:55:19.430Z,2.70
2018-12-01T09:58:22.478Z,2.60
2018-12-01T10:01:25.643Z,2.60
2018-12-01T10:04:28.755Z,2.50
2018-12-01T10:07:31.828Z,2.60
2018-12-01T10:10:34.923Z,2.50
2018-12-01T10:13:38.148Z,2.60
2018-12-01T10:16:41.211Z,2.60
2018-12-01T10:19:44.303Z,2.70
2018-12-01T10:22:47.397Z,2.70
2018-12-01T10:25:50.486Z,2.70
2018-12-01T10:28:53.607Z,2.60
2018-12-01T10:31:56.671Z,2.60
2018-12-01T10:34:59.763Z,2.70
2018-12-01T10:38:08.100Z,2.70
2018-12-01T10:41:11.175Z,3.00
2018-12-01T10:44:14.299Z,3.30
2018-12-01T10:47:17.358Z,3.20
2018-12-01T10:50:22.262Z,3.10
2018-12-01T10:53:25.318Z,2.90
2018-12-01T10:56:28.479Z,2.90
2018-12-01T10:59:31.587Z,3.00
2018-12-01T11:02:40.785Z,3.10
2018-12-01T11:05:43.695Z,3.30
2018-12-01T11:08:46.911Z,3.20
2018-12-01T11:11:50.196Z,3.20
2018-12-01T11:14:53.285Z,3.40
2018-12-01T11:17:56.374Z,3.60
2018-12-01T11:20:59.467Z,3.50
2018-12-01T11:24:02.695Z,3.60
2018-12-01T11:27:06.047Z,3.50
2018-12-01T11:30:17.756Z,3.70
2018-12-01T11:33:20.953Z,3.60
2018-12-01T11:36:24.147Z,3.60
2018-12-01T11:39:27.239Z,3.60
2018-12-01T11:42:30.332Z,3.60
2018-12-01T11:45:33.455Z,3.60
2018-12-01T11:48:36.519Z,3.60
2018-12-01T11:51:39.950Z,3.80
2018-12-01T11:54:43.215Z,3.80
2018-12-01T11:57:46.647Z,3.80
2018-12-01T12:00:49.707Z,3.90
2018-12-01T12:03:52.831Z,3.90
2018-12-01T12:06:55.891Z,3.90
2018-12-01T12:09:59.069Z,4.00
2018-12-01T12:13:02.078Z,4.00
2018-12-01T12:16:05.644Z,3.90
2018-12-01T12:19:08.791Z,4.00
2018-12-01T12:22:11.872Z,4.00
2018-12-01T12:25:14.968Z,4.00
2018-12-01T12:28:18.062Z,4.10
2018-12-01T12:31:21.251Z,4.10
2018-12-01T12:34:24.443Z,4.10
2018-12-01T12:37:27.541Z,4.20
2018-12-01T12:40:30.607Z,4.20
2018-12-01T12:43:33.607Z,4.10
2018-12-01T12:46:36.727Z,4.20
2018-12-01T12:49:41.162Z,4.20
2018-12-01T12:52:45.163Z,4.20
2018-12-01T12:55:48.243Z,4.20
2018-12-01T12:58:51.211Z,4.20
2018-12-01T13:01:54.223Z,4.20
2018-12-01T13:04:57.318Z,4.20
2018-12-01T13:08:00.410Z,4.30
2018-12-01T13:11:03.606Z,4.40
2018-12-01T13:14:06.698Z,4.50
2018-12-01T13:17:09.791Z,4.50
2018-12-01T13:20:15.023Z,4.60
2018-12-01T13:23:18.123Z,4.50
2018-12-01T13:26:21.620Z,4.50
2018-12-01T13:29:24.927Z,4.50
2018-12-01T13:32:28.116Z,4.40
2018-12-01T13:35:31.296Z,4.50
2018-12-01T13:38:34.484Z,4.50
2018-12-01T13:41:37.639Z,4.60
2018-12-01T13:44:40.801Z,4.60
2018-12-01T13:47:44.091Z,4.70
2018-12-01T13:50:47.396Z,4.70
2018-12-01T13:53:50.595Z,4.80
2018-12-01T13:56:53.681Z,4.80
2018-12-01T13:59:56.776Z,4.70
2018-12-01T14:02:59.867Z,4.70
2018-12-01T14:06:02.959Z,4.70
2018-12-01T14:09:07.586Z,4.60
2018-12-01T14:12:10.684Z,4.70
2018-12-01T14:15:14.964Z,4.70
2018-12-01T14:18:18.106Z,4.70
2018-12-01T14:21:21.219Z,4.60
2018-12-01T14:24:24.264Z,4.60
2018-12-01T14:27:27.355Z,4.60
2018-12-01T14:30:30.879Z,4.60
2018-12-01T14:33:33.969Z,4.60
2018-12-01T14:36:37.059Z,4.60
2018-12-01T14:39:40.162Z,4.50
2018-12-01T14:42:43.447Z,4.50
2018-12-01T14:45:47.848Z,4.40
2018-12-01T14:48:50.864Z,4.40
2018-12-01T14:51:53.955Z,4.30
2018-12-01T14:54:57.047Z,4.20
2018-12-01T14:58:00.143Z,4.20
2018-12-01T15:01:03.232Z,4.10
2018-12-01T15:04:06.331Z,4.10
2018-12-01T15:07:09.425Z,4.10
2018-12-01T15:10:22.962Z,4.10
2018-12-01T15:13:26.047Z,4.20
2018-12-01T15:16:29.252Z,4.20
2018-12-01T15:19:32.339Z,4.20
2018-12-01T15:22:35.431Z,4.10
2018-12-01T15:25:38.624Z,4.10
2018-12-01T15:28:41.818Z,4.00
2018-12-01T15:31:45.012Z,4.00
2018-12-01T15:34:48.925Z,4.00
2018-12-01T15:37:52.120Z,4.00
2018-12-01T15:40:55.198Z,4.10
2018-12-01T15:43:58.306Z,4.00
2018-12-01T15:47:01.418Z,4.00
2018-12-01T15:50:05.607Z,3.90
2018-12-01T15:53:13.128Z,4.00
2018-12-01T15:56:17.280Z,4.00
2018-12-01T15:59:20.415Z,4.00
2018-12-01T16:02:23.518Z,4.00
2018-12-01T16:05:26.815Z,4.10
2018-12-01T16:08:29.910Z,4.10
2018-12-01T16:11:33.009Z,4.10
2018-12-01T16:14:36.199Z,4.10
2018-12-01T16:17:39.411Z,4.10
2018-12-01T16:20:42.812Z,4.10
2018-12-01T16:23:45.939Z,4.10
2018-12-01T16:26:48.982Z,4.10
2018-12-01T16:29:52.071Z,4.10
2018-12-01T16:32:56.480Z,4.00
2018-12-01T16:35:59.487Z,4.00
2018-12-01T16:39:02.771Z,3.90
2018-12-01T16:42:07.262Z,3.90
2018-12-01T16:45:12.265Z,3.90
2018-12-01T16:48:15.441Z,3.80
2018-12-01T16:51:18.535Z,3.90
2018-12-01T16:54:21.744Z,3.90
2018-12-01T16:57:24.907Z,3.90
2018-12-01T17:00:28.026Z,3.80
2018-12-01T17:03:31.111Z,3.80
2018-12-01T17:06:34.198Z,3.80
2018-12-01T17:09:37.300Z,3.70
2018-12-01T17:12:40.680Z,3.70
2018-12-01T17:15:43.787Z,3.60
2018-12-01T17:18:46.982Z,3.60
2018-12-01T17:21:50.723Z,3.60
2018-12-01T17:24:53.887Z,3.60
2018-12-01T17:27:57.904Z,3.60
2018-12-01T17:31:01.024Z,3.60
2018-12-01T17:34:04.083Z,3.60
2018-12-01T17:37:07.176Z,3.60
2018-12-01T17:40:31.263Z,3.60
2018-12-01T17:43:38.355Z,3.50
2018-12-01T17:46:41.494Z,3.50
2018-12-01T17:49:44.734Z,3.40
2018-12-01T17:52:51.191Z,3.40
2018-12-01T17:55:54.511Z,3.40
2018-12-01T17:58:57.599Z,3.30
2018-12-01T18:02:00.699Z,3.30
2018-12-01T18:05:04.080Z,3.30
2018-12-01T18:08:11.957Z,3.20
2018-12-01T18:11:15.402Z,3.10
2018-12-01T18:14:18.490Z,3.00
2018-12-01T18:17:21.659Z,2.90
2018-12-01T18:20:24.752Z,2.70
2018-12-01T18:23:27.769Z,2.60
2018-12-01T18:26:30.980Z,2.40
2018-12-01T18:29:34.057Z,2.40
2018-12-01T18:32:37.235Z,2.40
2018-12-01T18:35:40.613Z,2.40
2018-12-01T18:38:45.703Z,2.50
2018-12-01T18:41:49.098Z,2.50
2018-12-01T18:44:52.183Z,2.50
2018-12-01T18:47:55.378Z,2.40
2018-12-01T18:50:58.475Z,2.40
2018-12-01T18:54:01.595Z,2.30
2018-12-01T18:57:04.655Z,2.20
2018-12-01T19:00:12.370Z,2.10
2018-12-01T19:03:15.585Z,2.00
2018-12-01T19:06:19.260Z,1.90
2018-12-01T19:09:22.383Z,1.80
2018-12-01T19:12:25.443Z,1.70
2018-12-01T19:15:28.780Z,1.60
2018-12-01T19:18:31.834Z,1.70
2018-12-01T19:21:34.927Z,1.70
2018-12-01T19:24:37.987Z,1.60
2018-12-01T19:27:41.215Z,1.50
2018-12-01T19:30:44.275Z,1.40
2018-12-01T19:33:47.607Z,1.40
2018-12-01T19:36:50.668Z,1.30
2018-12-01T19:39:53.807Z,1.40
2018-12-01T19:42:57.566Z,1.20
2018-12-01T19:46:00.891Z,1.20
2018-12-01T19:49:03.960Z,1.10
2018-12-01T19:52:07.051Z,1.00
2018-12-01T19:55:11.681Z,0.90
2018-12-01T19:58:17.846Z,1.00
2018-12-01T20:01:21.100Z,0.90
2018-12-01T20:04:24.300Z,0.80
2018-12-01T20:07:27.432Z,0.80
2018-12-01T20:10:33.923Z,0.80
2018-12-01T20:13:44.986Z,0.80
2018-12-01T20:16:51.809Z,0.80
2018-12-01T20:19:54.870Z,0.70
2018-12-01T20:22:57.951Z,0.70
2018-12-01T20:26:02.027Z,0.70
2018-12-01T20:29:05.875Z,0.70
2018-12-01T20:32:08.963Z,0.60
2018-12-01T20:35:14.707Z,0.60
2018-12-01T20:38:20.455Z,0.60
2018-12-01T20:41:23.571Z,0.60
2018-12-01T20:44:26.664Z,0.50
2018-12-01T20:47:29.755Z,0.50
2018-12-01T20:50:32.847Z,0.50
2018-12-01T20:53:36.350Z,0.40
2018-12-01T20:56:40.166Z,0.30
2018-12-01T20:59:43.250Z,0.30
2018-12-01T21:02:46.551Z,0.20
2018-12-01T21:05:49.747Z,0.10
2018-12-01T21:08:52.871Z,0.20
2018-12-01T21:11:56.237Z,0.20
2018-12-01T21:14:59.471Z,0.10
2018-12-01T21:18:02.527Z,0.10
2018-12-01T21:21:06.171Z,0.00
2018-12-01T21:24:09.431Z,0.00
2018-12-01T21:27:12.560Z,0.20
2018-12-01T21:30:18.170Z,0.10
2018-12-01T21:33:24.272Z,0.10
2018-12-01T21:36:27.543Z,0.00
2018-12-01T21:39:30.664Z,0.00
2018-12-01T21:42:33.719Z,0.00
2018-12-01T21:45:37.261Z,-0.10
2018-12-01T21:48:40.519Z,0.00
2018-12-01T21:51:44.055Z,0.00
2018-12-01T21:54:47.211Z,0.00
2018-12-01T21:57:50.846Z,-0.10
2018-12-01T22:00:59.445Z,0.00
2018-12-01T22:04:02.874Z,0.20
2018-12-01T22:07:06.043Z,0.30
2018-12-01T22:10:11.787Z,0.30
2018-12-01T22:13:15.226Z,0.30
2018-12-01T22:16:18.627Z,0.40
2018-12-01T22:19:21.900Z,0.30
2018-12-01T22:22:26.020Z,0.30
2018-12-01T22:25:29.307Z,0.30
2018-12-01T22:28:35.291Z,0.30
2018-12-01T22:31:35.799Z,0.30
2018-12-01T22:34:38.991Z,0.40
2018-12-01T22:37:42.743Z,0.30
2018-12-01T22:40:46.410Z,0.30
2018-12-01T22:43:55.087Z,0.30
2018-12-01T22:46:58.127Z,0.40
2018-12-01T22:50:01.551Z,0.40
2018-12-01T22:53:05.643Z,0.50
2018-12-01T22:56:08.804Z,0.40
2018-12-01T22:59:11.823Z,0.40
2018-12-01T23:02:15.615Z,0.40
2018-12-01T23:05:20.306Z,0.40
2018-12-01T23:08:26.631Z,0.50
2018-12-01T23:11:30.633Z,0.50
2018-12-01T23:14:34.472Z,0.50
2018-12-01T23:17:38.166Z,0.60
2018-12-01T23:20:44.859Z,0.70
2018-12-01T23:23:48.168Z,0.80
2018-12-01T23:26:51.858Z,0.80
2018-12-01T23:29:54.971Z,0.80
2018-12-01T23:33:00.907Z,0.90
2018-12-01T23:36:04.118Z,1.00
2018-12-01T23:39:07.356Z,1.00
2018-12-01T23:42:11.213Z,1.00
2018-12-01T23:45:17.314Z,1.20
2018-12-01T23:48:20.608Z,1.20
2018-12-01T23:51:23.775Z,1.30
2018-12-01T23:54:27.055Z,1.30
2018-12-01T23:57:30.279Z,1.30
